In Rescue
 
Open Full Screen Window  High Contrast Mode
July 13, 2020 10:46 PM EDT
Weather Information
Wind Direction
  ---
Wind Speed
  00 kt (0 mph)
Wind Gust
  00 kt (0 mph)
Altimeter
29.86 in
Visibility
10 SM
Temperature
21° C
70° F
Dewpoint
20° C
68° F
Humidity
94%
Sky Condition
Broken @ 10,000 ft
VFR

METAR KFSO 140246Z AUTO 00000KT 10SM BKN100 21/20 A2986 RMK AO2 T02050197

FAA Disclaimer: The data displayed is for advisory purposes only and is not to be used for flight planning or operations.